Regul — UHSS — position and weather

sailwx.info

Track history (hours):
 
Tides and Currents Weather Stations Pressure Air Temp Water Temp Dewpoint Dewpoint Depression Visibility Wind Speed Wind Dir Waves Ship Positions

Regul

Last reported at 2017-Oct-24 17:35 UTC. Time now 2017-Nov-19 06:32 UTC.
Position N 45°32' E 036°47'.
Warning: this ship's position is 25 days out of date.

Length 38 m; draft 3.3 m.

Type: Tug. MMSI: 273397670.

Date/timePositionNaut miles runAvg speedWind from/ knotsBaromVisibWave heightAir tempDewpointWater temp
2017-Oct-24 17:35N 45°32' E 036°47'2 6.4
2017-Oct-24 17:19N 45°31' E 036°45'2 7.3
2017-Oct-24 17:00N 45°29' E 036°43'4 7.4
2017-Oct-24 16:30N 45°26' E 036°42'4 7.8
2017-Oct-24 16:00N 45°22' E 036°40'3 6.8
2017-Oct-24 15:31N 45°20' E 036°36'3 6.6
2017-Oct-24 15:00N 45°19' E 036°31'2 3.5
2017-Oct-24 14:27N 45°20' E 036°29'0 0.0
2017-Oct-24 13:55N 45°20' E 036°29'0 0.0
2017-Oct-24 13:24N 45°20' E 036°29'0 0.0
2017-Oct-24 12:59N 45°20' E 036°29'0 0.0
2017-Oct-24 12:30N 45°20' E 036°29'0 0.0
2017-Oct-24 11:58N 45°20' E 036°29'0 0.0
2017-Oct-24 11:25N 45°20' E 036°29'0 0.0
2017-Oct-24 11:00N 45°20' E 036°29'0 0.0
2017-Oct-24 10:28N 45°20' E 036°29'0 0.0
2017-Oct-24 09:58N 45°20' E 036°29'0 0.0
2017-Oct-24 09:29N 45°20' E 036°29'0 0.0
2017-Oct-24 08:58N 45°20' E 036°29'0 0.0
2017-Oct-24 08:28N 45°20' E 036°29'0 0.0
2017-Oct-24 07:59N 45°20' E 036°29'0 0.0
2017-Oct-24 07:29N 45°20' E 036°29'0 0.3
2017-Oct-24 06:45N 45°20' E 036°28'0 0.0
2017-Oct-24 06:30N 45°20' E 036°28'0 0.0
2017-Oct-24 05:58N 45°20' E 036°28'0 0.0
2017-Oct-24 05:17N 45°20' E 036°28'0 0.0
2017-Oct-24 04:59N 45°20' E 036°28'0 0.0
2017-Oct-24 04:30N 45°20' E 036°28'0 0.0
2017-Oct-24 03:56N 45°20' E 036°28'0 0.0
2017-Oct-24 03:30N 45°20' E 036°28'0 0.0
2017-Oct-24 02:59N 45°20' E 036°28'0 0.0
2017-Oct-24 02:28N 45°20' E 036°28'0 0.0
2017-Oct-24 01:55N 45°20' E 036°28'0 0.0
2017-Oct-24 01:29N 45°20' E 036°28'0 0.0
2017-Oct-24 01:00N 45°20' E 036°28'0 0.0
2017-Oct-24 00:22N 45°20' E 036°28'0 0.0
2017-Oct-23 23:58N 45°20' E 036°28'0 0.0
2017-Oct-23 23:29N 45°20' E 036°28'0 0.0
2017-Oct-23 22:56N 45°20' E 036°28'0 0.0
2017-Oct-23 22:27N 45°20' E 036°28'0 0.0
2017-Oct-23 21:56N 45°20' E 036°28'0 0.0
2017-Oct-23 21:29N 45°20' E 036°28'0 0.0
2017-Oct-23 20:54N 45°20' E 036°28'0 0.0
2017-Oct-23 20:30N 45°20' E 036°28'0 0.0
2017-Oct-23 19:59N 45°20' E 036°28'0 0.0
2017-Oct-23 19:18N 45°20' E 036°28'0 0.0
2017-Oct-23 19:00N 45°20' E 036°28'0 0.0
2017-Oct-23 18:30N 45°20' E 036°28'0 0.0
2017-Oct-23 17:58N 45°20' E 036°28'0 0.0
2017-Oct-23 17:23N 45°20' E 036°28'0 0.0
2017-Oct-23 16:59N 45°20' E 036°28'0 0.0
2017-Oct-23 16:27N 45°20' E 036°28'0 0.0
2017-Oct-23 15:08N 45°20' E 036°28'0 0.0
2017-Oct-23 15:00N 45°20' E 036°28'0 0.0
2017-Oct-23 14:29N 45°20' E 036°28'0 0.0
2017-Oct-23 13:56N 45°20' E 036°28'0 0.0
2017-Oct-23 13:27N 45°20' E 036°28'0 0.0
2017-Oct-23 12:53N 45°20' E 036°28'0 0.0
2017-Oct-23 12:30N 45°20' E 036°28'0 0.0
2017-Oct-23 11:59N 45°20' E 036°28'0 0.0
2017-Oct-23 11:28N 45°20' E 036°28'0 0.0
2017-Oct-23 10:58N 45°20' E 036°28'0 0.0
2017-Oct-23 10:22N 45°20' E 036°28'0 0.0
2017-Oct-23 09:47N 45°20' E 036°28'0 0.0
2017-Oct-23 09:10N 45°20' E 036°28'0 0.0
2017-Oct-23 08:51N 45°20' E 036°28'0 0.0
2017-Oct-23 08:28N 45°20' E 036°28'0 0.0
2017-Oct-23 07:58N 45°20' E 036°28'0 0.0
2017-Oct-23 07:25N 45°20' E 036°28'0 0.0
2017-Oct-23 06:59N 45°20' E 036°28'0 0.0
2017-Oct-23 06:30N 45°20' E 036°28'0 0.0
2017-Oct-23 05:58N 45°20' E 036°28'0 0.0
2017-Oct-23 05:28N 45°20' E 036°28'0 0.0
2017-Oct-23 04:59N 45°20' E 036°28'0 0.0
2017-Oct-23 04:09N 45°20' E 036°28'0 0.0
2017-Oct-23 03:55N 45°20' E 036°28'0 0.0
2017-Oct-23 03:26N 45°20' E 036°28'0 0.0
2017-Oct-23 03:00N 45°20' E 036°28'0 0.0
2017-Oct-23 02:29N 45°20' E 036°28'0 0.0
2017-Oct-23 01:57N 45°20' E 036°28'0 0.0
2017-Oct-23 01:29N 45°20' E 036°28'0 0.0
2017-Oct-23 01:00N 45°20' E 036°28'0 0.0
2017-Oct-23 00:30N 45°20' E 036°28'0 0.0
2017-Oct-22 23:21N 45°20' E 036°28'0 0.0
2017-Oct-22 22:57N 45°20' E 036°28'0 0.0
2017-Oct-22 22:25N 45°20' E 036°28'0 0.0
2017-Oct-22 21:36N 45°20' E 036°28'0 0.0
2017-Oct-22 21:30N 45°20' E 036°28'0 0.0
2017-Oct-22 20:58N 45°20' E 036°28'0 0.0
2017-Oct-22 20:23N 45°20' E 036°28'0 0.0
2017-Oct-22 19:59N 45°20' E 036°28'0 0.0
2017-Oct-22 18:18N 45°20' E 036°28'0 0.0
2017-Oct-22 17:57N 45°20' E 036°28'0 0.0
2017-Oct-22 17:30N 45°20' E 036°28'0 0.0
2017-Oct-22 16:58N 45°20' E 036°28'0 0.0
2017-Oct-22 16:21N 45°20' E 036°28'0 0.0
2017-Oct-22 16:00N 45°20' E 036°28'0 0.0
2017-Oct-22 15:29N 45°20' E 036°28'0 0.0
2017-Oct-22 14:56N 45°20' E 036°28'0 0.0
2017-Oct-22 14:21N 45°20' E 036°28'0 0.0
2017-Oct-22 13:58N 45°20' E 036°28'0 0.0
2017-Oct-22 13:27N 45°20' E 036°28'0 0.0
2017-Oct-22 12:20N 45°20' E 036°28'0 0.0
2017-Oct-22 11:57N 45°20' E 036°28'0 0.0
2017-Oct-22 11:28N 45°20' E 036°28'0 0.0
2017-Oct-22 11:00N 45°20' E 036°28'0 0.0
2017-Oct-22 10:29N 45°20' E 036°28'0 0.0
2017-Oct-22 09:57N 45°20' E 036°28'0 0.0
2017-Oct-22 09:29N 45°20' E 036°28'0 0.0
2017-Oct-22 08:57N 45°20' E 036°28'0 0.0
2017-Oct-22 08:30N 45°20' E 036°28'0 0.0
2017-Oct-22 07:51N 45°20' E 036°28'0 0.0
2017-Oct-22 07:30N 45°20' E 036°28'0 0.0
2017-Oct-22 04:58N 45°20' E 036°28'0 0.0
2017-Oct-22 04:30N 45°20' E 036°28'0 0.0
2017-Oct-22 03:39N 45°20' E 036°28'0 0.0
2017-Oct-22 03:28N 45°20' E 036°28'0 0.0
2017-Oct-22 03:00N 45°20' E 036°28'0 0.0
2017-Oct-22 02:25N 45°20' E 036°28'0 0.0
2017-Oct-22 01:46N 45°20' E 036°28'0 0.0
2017-Oct-22 01:28N 45°20' E 036°28'0 0.0
2017-Oct-22 00:58N 45°20' E 036°28'0 0.0
2017-Oct-22 00:24N 45°20' E 036°28'0 0.0
2017-Oct-21 23:59N 45°20' E 036°28'0 0.0
2017-Oct-21 21:18N 45°20' E 036°28'0 0.0
2017-Oct-21 20:50N 45°20' E 036°28'0 0.0
2017-Oct-21 20:24N 45°20' E 036°28'0 0.0
2017-Oct-21 19:59N 45°20' E 036°28'0 0.0
2017-Oct-21 19:28N 45°20' E 036°28'0 0.0
2017-Oct-21 18:59N 45°20' E 036°28'0 0.0
2017-Oct-21 18:23N 45°20' E 036°28'0 0.0
2017-Oct-21 18:00N 45°20' E 036°28'0 0.0
2017-Oct-21 17:27N 45°20' E 036°28'0 0.0
2017-Oct-21 16:50N 45°20' E 036°28'0 0.0
2017-Oct-21 16:24N 45°20' E 036°28'0 0.0
2017-Oct-21 16:00N 45°20' E 036°28'0 0.0
2017-Oct-21 15:27N 45°20' E 036°28'0 0.0
2017-Oct-21 14:58N 45°20' E 036°28'0 0.0
2017-Oct-21 14:23N 45°20' E 036°28'0 0.0
2017-Oct-21 13:27N 45°20' E 036°28'0 0.0
2017-Oct-21 12:58N 45°20' E 036°28'0 0.0
2017-Oct-21 12:23N 45°20' E 036°28'0 0.0
2017-Oct-21 12:00N 45°20' E 036°28'0 0.0
2017-Oct-21 11:30N 45°20' E 036°28'0 0.0
2017-Oct-21 10:56N 45°20' E 036°28'0 0.0
2017-Oct-21 10:29N 45°20' E 036°28'0 0.0
2017-Oct-21 09:59N 45°20' E 036°28'0 0.0
2017-Oct-21 09:22N 45°20' E 036°28'0 0.0
2017-Oct-21 07:25N 45°20' E 036°28'0 0.0
2017-Oct-21 07:00N 45°20' E 036°28'0 0.0
2017-Oct-21 06:26N 45°20' E 036°28'0 0.0
2017-Oct-21 05:59N 45°20' E 036°28'0 0.0
2017-Oct-21 05:30N 45°20' E 036°28'0 0.0
2017-Oct-21 04:58N 45°20' E 036°28'0 0.0
2017-Oct-21 04:29N 45°20' E 036°28'0 0.0
2017-Oct-21 03:59N 45°20' E 036°28'0 0.0
2017-Oct-21 02:42N 45°20' E 036°28'0 0.0
2017-Oct-21 02:28N 45°20' E 036°28'0 0.0
2017-Oct-21 01:54N 45°20' E 036°28'0 0.0
2017-Oct-21 01:28N 45°20' E 036°28'0 0.0
2017-Oct-21 00:56N 45°20' E 036°28'0 0.0
2017-Oct-21 00:21N 45°20' E 036°28'0 0.0
2017-Oct-20 23:59N 45°20' E 036°28'0 0.0
2017-Oct-20 23:28N 45°20' E 036°28'0 0.0
2017-Oct-20 22:11N 45°20' E 036°28'0 0.0
2017-Oct-20 21:28N 45°20' E 036°28'0 0.0
2017-Oct-20 20:21N 45°20' E 036°28'0 0.0
2017-Oct-20 19:58N 45°20' E 036°28'0 0.0
2017-Oct-20 18:16N 45°20' E 036°28'0 0.0
2017-Oct-20 17:59N 45°20' E 036°28'0 0.0
2017-Oct-20 17:28N 45°20' E 036°28'0 0.0
2017-Oct-20 16:30N 45°20' E 036°28'0 0.0
2017-Oct-20 15:57N 45°20' E 036°28'0 0.0
2017-Oct-20 15:27N 45°20' E 036°28'0 0.0
2017-Oct-20 13:53N 45°20' E 036°28'0 0.0
2017-Oct-20 13:30N 45°20' E 036°28'0 0.0
2017-Oct-20 12:56N 45°20' E 036°28'0 0.0
2017-Oct-20 12:26N 45°20' E 036°28'0 0.0
2017-Oct-20 11:59N 45°20' E 036°28'0 0.0
2017-Oct-20 11:29N 45°20' E 036°28'0 0.0
2017-Oct-20 10:58N 45°20' E 036°28'0 0.0
2017-Oct-20 10:29N 45°20' E 036°28'0 0.0
2017-Oct-20 09:55N 45°20' E 036°28'0 0.0
2017-Oct-20 09:28N 45°20' E 036°28'0 0.0
2017-Oct-20 08:52N 45°20' E 036°28'0 0.0
2017-Oct-20 08:23N 45°20' E 036°28'0 0.0
2017-Oct-20 08:00N 45°20' E 036°28'0 0.0
2017-Oct-20 07:30N 45°20' E 036°28'0 0.0
2017-Oct-20 06:23N 45°20' E 036°28'0 0.0
2017-Oct-20 05:11N 45°20' E 036°28'0 0.0
2017-Oct-20 04:49N 45°20' E 036°28'0 0.0
2017-Oct-20 04:29N 45°20' E 036°28'0 0.0
2017-Oct-20 03:59N 45°20' E 036°28'0 0.0
2017-Oct-20 02:47N 45°20' E 036°28'0 0.0
2017-Oct-20 02:23N 45°20' E 036°28'0 0.0
2017-Oct-20 01:53N 45°20' E 036°28'0 0.0
2017-Oct-20 01:29N 45°20' E 036°28'0 0.0
2017-Oct-20 00:24N 45°20' E 036°28'0 0.0
2017-Oct-19 23:59N 45°20' E 036°28'0 0.0
2017-Oct-19 23:30N 45°20' E 036°28'0 0.0
2017-Oct-19 22:11N 45°20' E 036°28'0 0.0
2017-Oct-19 21:58N 45°20' E 036°28'0 0.0
2017-Oct-19 21:28N 45°20' E 036°28'0 0.0
2017-Oct-19 20:55N 45°20' E 036°28'0 0.0
2017-Oct-19 20:03N 45°20' E 036°28'0 0.0
2017-Oct-19 20:00N 45°20' E 036°28'0 0.0
2017-Oct-19 19:27N 45°20' E 036°28'0 0.0
2017-Oct-19 18:08N 45°20' E 036°28'0 0.0
2017-Oct-19 17:59N 45°20' E 036°28'0 0.0
2017-Oct-19 17:30N 45°20' E 036°28'0 0.0
2017-Oct-19 16:43N 45°20' E 036°28'0 0.0
2017-Oct-19 16:22N 45°20' E 036°28'0 0.0
2017-Oct-19 15:59N 45°20' E 036°28'0 0.0
2017-Oct-19 15:27N 45°20' E 036°28'0 0.0
2017-Oct-19 14:40N 45°20' E 036°28'0 0.0
2017-Oct-19 14:28N 45°20' E 036°28'0 0.0
2017-Oct-19 14:00N 45°20' E 036°28'0 0.0
2017-Oct-19 13:28N 45°20' E 036°28'0 0.0
2017-Oct-19 12:56N 45°20' E 036°28'0 0.0
2017-Oct-19 12:25N 45°20' E 036°28'0 0.0
2017-Oct-19 12:00N 45°20' E 036°28'0 0.0
2017-Oct-19 11:22N 45°20' E 036°28'0 0.0
2017-Oct-19 10:57N 45°20' E 036°28'0 0.0
2017-Oct-19 10:30N 45°20' E 036°28'0 0.0
2017-Oct-19 09:53N 45°20' E 036°28'0 0.0
2017-Oct-19 09:29N 45°20' E 036°28'0 0.0
2017-Oct-19 08:59N 45°20' E 036°28'0 0.0
2017-Oct-19 08:24N 45°20' E 036°28'0 0.0
2017-Oct-19 07:54N 45°20' E 036°28'0 0.0
2017-Oct-19 07:30N 45°20' E 036°28'0 0.0
2017-Oct-19 06:59N 45°20' E 036°28'0 0.0
2017-Oct-19 06:26N 45°20' E 036°28'0 0.0
2017-Oct-19 05:59N 45°20' E 036°28'0 0.0
2017-Oct-19 05:29N 45°20' E 036°28'0 0.0
2017-Oct-19 04:58N 45°20' E 036°28'0 0.0
2017-Oct-19 04:27N 45°20' E 036°28'0 0.0
2017-Oct-19 00:52N 45°20' E 036°28'0 0.0
2017-Oct-19 00:22N 45°20' E 036°28'0 0.0
2017-Oct-18 23:52N 45°20' E 036°28'0 0.0
2017-Oct-18 22:56N 45°20' E 036°28'0 0.0
2017-Oct-18 22:25N 45°20' E 036°28'0 0.0
2017-Oct-18 18:56N 45°20' E 036°28'0 0.0
2017-Oct-18 18:22N 45°20' E 036°28'0 0.0
2017-Oct-18 18:00N 45°20' E 036°28'0 0.0
2017-Oct-18 16:52N 45°20' E 036°28'0 0.0
2017-Oct-18 16:22N 45°20' E 036°28'0 0.0
2017-Oct-18 14:32N 45°20' E 036°28'0 0.0
2017-Oct-18 12:31N 45°20' E 036°28'0 0.0
2017-Oct-18 12:20N 45°20' E 036°28'0 0.0
2017-Oct-18 11:53N 45°20' E 036°28'0 0.0
2017-Oct-18 11:18N 45°20' E 036°28'0 0.0
2017-Oct-18 10:58N 45°20' E 036°28'0 0.0
2017-Oct-18 10:26N 45°20' E 036°28'0 0.0
2017-Oct-18 09:54N 45°20' E 036°28'0 0.0
2017-Oct-18 09:30N 45°20' E 036°28'0 0.0
2017-Oct-18 08:55N 45°20' E 036°28'0 0.0
2017-Oct-18 08:30N 45°20' E 036°28'0 0.0
2017-Oct-18 07:59N 45°20' E 036°28'0 0.0
2017-Oct-18 07:23N 45°20' E 036°28'0 0.0
2017-Oct-18 06:55N 45°20' E 036°28'0 0.0
2017-Oct-18 06:27N 45°20' E 036°28'0 0.0
2017-Oct-18 06:00N 45°20' E 036°28'0 0.0
2017-Oct-18 05:21N 45°20' E 036°28'0 0.0
2017-Oct-18 04:57N 45°20' E 036°28'0 0.0
2017-Oct-18 04:25N 45°20' E 036°28'0 0.0
2017-Oct-18 03:45N 45°20' E 036°28'0 0.0
2017-Oct-18 03:29N 45°20' E 036°28'0 0.0
2017-Oct-18 02:55N 45°20' E 036°28'0 0.0
2017-Oct-18 02:28N 45°20' E 036°28'0 0.0
2017-Oct-18 01:22N 45°20' E 036°28'0 0.0
2017-Oct-18 00:58N 45°20' E 036°28'0 0.0
2017-Oct-18 00:27N 45°20' E 036°28'0 0.0
2017-Oct-17 23:56N 45°20' E 036°28'0 0.0
2017-Oct-17 22:15N 45°20' E 036°28'0 0.0
2017-Oct-17 21:57N 45°20' E 036°28'0 0.0
2017-Oct-17 21:28N 45°20' E 036°28'0 0.0
2017-Oct-17 20:56N 45°20' E 036°28'0 0.0
2017-Oct-17 20:21N 45°20' E 036°28'0 0.0
2017-Oct-17 19:59N 45°20' E 036°28'0 0.0
2017-Oct-17 19:28N 45°20' E 036°28'0 0.0
2017-Oct-17 19:00N 45°20' E 036°28'0 0.0
2017-Oct-17 17:34N 45°20' E 036°28'0 0.1
2017-Oct-17 17:28N 45°20' E 036°28'0 0.0
2017-Oct-17 16:17N 45°20' E 036°28'0 0.0
2017-Oct-17 15:58N 45°20' E 036°28'0 0.0
2017-Oct-17 15:19N 45°20' E 036°28'0 0.0
2017-Oct-17 14:57N 45°20' E 036°28'0 0.0
2017-Oct-17 14:27N 45°20' E 036°28'0 0.0
2017-Oct-17 13:59N 45°20' E 036°28'0 0.0
2017-Oct-17 13:28N 45°20' E 036°28'0 0.0
2017-Oct-17 12:58N 45°20' E 036°28'0 0.0
2017-Oct-17 12:30N 45°20' E 036°28'0 0.0
2017-Oct-17 12:00N 45°20' E 036°28'0 0.0
2017-Oct-17 11:27N 45°20' E 036°28'0 0.0
2017-Oct-17 11:00N 45°20' E 036°28'1 1.5
2017-Oct-17 10:30N 45°20' E 036°30'3 7.0
2017-Oct-17 10:01N 45°20' E 036°35'4 8.1
2017-Oct-17 09:31N 45°22' E 036°40'4 7.9
2017-Oct-17 09:01N 45°25' E 036°43'4 7.4
2017-Oct-17 08:30N 45°27' E 036°47'3 6.0
2017-Oct-17 08:00N 45°28' E 036°51'0 0.0
2017-Oct-17 07:31N 45°29' E 036°51'0 0.0
2017-Oct-17 07:00N 45°29' E 036°51'0 0.0
2017-Oct-17 06:30N 45°29' E 036°51'0 0.0
2017-Oct-17 05:59N 45°29' E 036°51'0 0.8
2017-Oct-17 05:30N 45°28' E 036°50'4 8.7
2017-Oct-17 05:01N 45°26' E 036°45'4 8.8
2017-Oct-17 04:30N 45°23' E 036°41'4 8.7
2017-Oct-17 04:01N 45°20' E 036°36'4 7.9
2017-Oct-17 03:31N 45°19' E 036°30'1 1.1
2017-Oct-17 02:17N 45°20' E 036°28'0 0.0
2017-Oct-17 01:57N 45°20' E 036°28'0 0.0
2017-Oct-17 01:28N 45°20' E 036°28'0 0.0
2017-Oct-17 00:16N 45°20' E 036°28'0 0.0
2017-Oct-16 23:53N 45°20' E 036°28'0 0.0
2017-Oct-16 23:28N 45°20' E 036°28'0 0.0
2017-Oct-16 22:07N 45°20' E 036°28'0 0.0
2017-Oct-16 21:57N 45°20' E 036°28'0 0.0
2017-Oct-16 21:29N 45°20' E 036°28'0 0.0
2017-Oct-16 20:16N 45°20' E 036°28'0 0.0
2017-Oct-16 19:43N 45°20' E 036°28'0 0.0
2017-Oct-16 19:28N 45°20' E 036°28'0 0.0
2017-Oct-16 18:57N 45°20' E 036°28'0 0.0
2017-Oct-16 17:53N 45°20' E 036°28'0 0.0
2017-Oct-16 17:01N 45°20' E 036°28'0 0.1
2017-Oct-16 16:55N 45°20' E 036°28'0 0.0
2017-Oct-16 16:23N 45°20' E 036°28'0 0.0
2017-Oct-16 15:55N 45°20' E 036°28'0 0.0
2017-Oct-16 15:27N 45°20' E 036°28'0 0.0
2017-Oct-16 14:56N 45°20' E 036°28'0 0.0
2017-Oct-16 14:24N 45°20' E 036°28'0 0.0
2017-Oct-16 13:30N 45°20' E 036°28'0 0.0
2017-Oct-16 12:58N 45°20' E 036°28'0 0.0
2017-Oct-16 12:26N 45°20' E 036°28'0 0.0
2017-Oct-16 12:00N 45°20' E 036°28'0 0.0
2017-Oct-16 11:28N 45°20' E 036°28'0 0.0
2017-Oct-16 10:59N 45°20' E 036°28'0 0.0
2017-Oct-16 10:23N 45°20' E 036°28'0 0.0
2017-Oct-16 09:45N 45°20' E 036°28'0 0.0
2017-Oct-16 09:29N 45°20' E 036°28'0 0.0
2017-Oct-16 08:57N 45°20' E 036°28'0 0.0
2017-Oct-16 08:26N 45°20' E 036°28'0 0.0
2017-Oct-16 07:59N 45°20' E 036°28'0 0.0
2017-Oct-16 07:30N 45°20' E 036°28'0 0.0
2017-Oct-16 06:50N 45°20' E 036°28'0 0.0
2017-Oct-16 06:27N 45°20' E 036°28'0 0.0
2017-Oct-16 05:58N 45°20' E 036°29'0 0.1
2017-Oct-16 05:06N 45°20' E 036°29'0 0.0
2017-Oct-16 04:58N 45°20' E 036°29'0 0.0
2017-Oct-16 04:23N 45°20' E 036°29'0 0.0
2017-Oct-16 03:45N 45°20' E 036°29'0 0.0
2017-Oct-16 03:30N 45°20' E 036°29'0 0.0
2017-Oct-16 02:16N 45°20' E 036°29'0 0.0
2017-Oct-16 01:52N 45°20' E 036°29'0 0.0
2017-Oct-16 01:27N 45°20' E 036°29'0 0.0
2017-Oct-16 00:39N 45°20' E 036°29'0 0.0
2017-Oct-16 00:23N 45°20' E 036°29'0 0.0
2017-Oct-15 23:56N 45°20' E 036°29'0 0.0
2017-Oct-15 23:25N 45°20' E 036°29'0 0.0
2017-Oct-15 22:41N 45°20' E 036°29'0 0.0
2017-Oct-15 22:25N 45°20' E 036°29'0 0.0
2017-Oct-15 21:59N 45°20' E 036°29'0 0.0
2017-Oct-15 21:22N 45°20' E 036°29'0 0.0
2017-Oct-15 20:59N 45°20' E 036°29'0 0.0
2017-Oct-15 20:18N 45°20' E 036°29'0 0.0
2017-Oct-15 19:57N 45°20' E 036°29'0 0.0
2017-Oct-15 18:10N 45°20' E 036°29'0 0.0
2017-Oct-15 17:59N 45°20' E 036°29'0 0.0
2017-Oct-15 16:48N 45°20' E 036°29'0 0.0
2017-Oct-15 16:23N 45°20' E 036°29'0 0.0
2017-Oct-15 13:10N 45°20' E 036°29'0 0.0
2017-Oct-15 12:48N 45°20' E 036°29'0 0.0
2017-Oct-15 12:19N 45°20' E 036°29'0 0.0
2017-Oct-15 11:13N 45°20' E 036°29'0 0.1
2017-Oct-15 10:45N 45°20' E 036°29'0 0.5
2017-Oct-15 10:28N 45°20' E 036°29'0 0.0
2017-Oct-15 09:59N 45°20' E 036°29'0 0.0
2017-Oct-15 09:27N 45°20' E 036°29'0 0.0
2017-Oct-15 09:00N 45°20' E 036°29'0 0.0
2017-Oct-15 08:28N 45°20' E 036°29'0 0.3
2017-Oct-15 08:00N 45°20' E 036°29'0 0.1
2017-Oct-15 07:29N 45°20' E 036°29'0 0.6
2017-Oct-15 07:00N 45°20' E 036°29'1 2.7
2017-Oct-15 06:29N 45°18' E 036°30'3 6.7
2017-Oct-15 06:00N 45°17' E 036°26'  
Track history (hours):
 
Tides and Currents Weather Stations Pressure Air Temp Water Temp Dewpoint Dewpoint Depression Visibility Wind Speed Wind Dir Waves Ship Positions

Regul

Last reported at 2017-Oct-24 17:35 UTC. Time now 2017-Nov-19 06:32 UTC.
Position N 45°32' E 036°47'.
Warning: this ship's position is 25 days out of date.

Length 38 m; draft 3.3 m.

Type: Tug. MMSI: 273397670.

Date/timePositionNaut miles runAvg speedWind from/ knotsBaromVisibWave heightAir tempDewpointWater temp
2017-Oct-24 17:35N 45°32' E 036°47'2 6.4
2017-Oct-24 17:19N 45°31' E 036°45'2 7.3
2017-Oct-24 17:00N 45°29' E 036°43'4 7.4
2017-Oct-24 16:30N 45°26' E 036°42'4 7.8
2017-Oct-24 16:00N 45°22' E 036°40'3 6.8
2017-Oct-24 15:31N 45°20' E 036°36'3 6.6
2017-Oct-24 15:00N 45°19' E 036°31'2 3.5
2017-Oct-24 14:27N 45°20' E 036°29'0 0.0
2017-Oct-24 13:55N 45°20' E 036°29'0 0.0
2017-Oct-24 13:24N 45°20' E 036°29'0 0.0
2017-Oct-24 12:59N 45°20' E 036°29'0 0.0
2017-Oct-24 12:30N 45°20' E 036°29'0 0.0
2017-Oct-24 11:58N 45°20' E 036°29'0 0.0
2017-Oct-24 11:25N 45°20' E 036°29'0 0.0
2017-Oct-24 11:00N 45°20' E 036°29'0 0.0
2017-Oct-24 10:28N 45°20' E 036°29'0 0.0
2017-Oct-24 09:58N 45°20' E 036°29'0 0.0
2017-Oct-24 09:29N 45°20' E 036°29'0 0.0
2017-Oct-24 08:58N 45°20' E 036°29'0 0.0
2017-Oct-24 08:28N 45°20' E 036°29'0 0.0
2017-Oct-24 07:59N 45°20' E 036°29'0 0.0
2017-Oct-24 07:29N 45°20' E 036°29'0 0.3
2017-Oct-24 06:45N 45°20' E 036°28'0 0.0
2017-Oct-24 06:30N 45°20' E 036°28'0 0.0
2017-Oct-24 05:58N 45°20' E 036°28'0 0.0
2017-Oct-24 05:17N 45°20' E 036°28'0 0.0
2017-Oct-24 04:59N 45°20' E 036°28'0 0.0
2017-Oct-24 04:30N 45°20' E 036°28'0 0.0
2017-Oct-24 03:56N 45°20' E 036°28'0 0.0
2017-Oct-24 03:30N 45°20' E 036°28'0 0.0
2017-Oct-24 02:59N 45°20' E 036°28'0 0.0
2017-Oct-24 02:28N 45°20' E 036°28'0 0.0
2017-Oct-24 01:55N 45°20' E 036°28'0 0.0
2017-Oct-24 01:29N 45°20' E 036°28'0 0.0
2017-Oct-24 01:00N 45°20' E 036°28'0 0.0
2017-Oct-24 00:22N 45°20' E 036°28'0 0.0
2017-Oct-23 23:58N 45°20' E 036°28'0 0.0
2017-Oct-23 23:29N 45°20' E 036°28'0 0.0
2017-Oct-23 22:56N 45°20' E 036°28'0 0.0
2017-Oct-23 22:27N 45°20' E 036°28'0 0.0
2017-Oct-23 21:56N 45°20' E 036°28'0 0.0
2017-Oct-23 21:29N 45°20' E 036°28'0 0.0
2017-Oct-23 20:54N 45°20' E 036°28'0 0.0
2017-Oct-23 20:30N 45°20' E 036°28'0 0.0
2017-Oct-23 19:59N 45°20' E 036°28'0 0.0
2017-Oct-23 19:18N 45°20' E 036°28'0 0.0
2017-Oct-23 19:00N 45°20' E 036°28'0 0.0
2017-Oct-23 18:30N 45°20' E 036°28'0 0.0
2017-Oct-23 17:58N 45°20' E 036°28'0 0.0
2017-Oct-23 17:23N 45°20' E 036°28'0 0.0
2017-Oct-23 16:59N 45°20' E 036°28'0 0.0
2017-Oct-23 16:27N 45°20' E 036°28'0 0.0
2017-Oct-23 15:08N 45°20' E 036°28'0 0.0
2017-Oct-23 15:00N 45°20' E 036°28'0 0.0
2017-Oct-23 14:29N 45°20' E 036°28'0 0.0
2017-Oct-23 13:56N 45°20' E 036°28'0 0.0
2017-Oct-23 13:27N 45°20' E 036°28'0 0.0
2017-Oct-23 12:53N 45°20' E 036°28'0 0.0
2017-Oct-23 12:30N 45°20' E 036°28'0 0.0
2017-Oct-23 11:59N 45°20' E 036°28'0 0.0
2017-Oct-23 11:28N 45°20' E 036°28'0 0.0
2017-Oct-23 10:58N 45°20' E 036°28'0 0.0
2017-Oct-23 10:22N 45°20' E 036°28'0 0.0
2017-Oct-23 09:47N 45°20' E 036°28'0 0.0
2017-Oct-23 09:10N 45°20' E 036°28'0 0.0
2017-Oct-23 08:51N 45°20' E 036°28'0 0.0
2017-Oct-23 08:28N 45°20' E 036°28'0 0.0
2017-Oct-23 07:58N 45°20' E 036°28'0 0.0
2017-Oct-23 07:25N 45°20' E 036°28'0 0.0
2017-Oct-23 06:59N 45°20' E 036°28'0 0.0
2017-Oct-23 06:30N 45°20' E 036°28'0 0.0
2017-Oct-23 05:58N 45°20' E 036°28'0 0.0
2017-Oct-23 05:28N 45°20' E 036°28'0 0.0
2017-Oct-23 04:59N 45°20' E 036°28'0 0.0
2017-Oct-23 04:09N 45°20' E 036°28'0 0.0
2017-Oct-23 03:55N 45°20' E 036°28'0 0.0
2017-Oct-23 03:26N 45°20' E 036°28'0 0.0
2017-Oct-23 03:00N 45°20' E 036°28'0 0.0
2017-Oct-23 02:29N 45°20' E 036°28'0 0.0
2017-Oct-23 01:57N 45°20' E 036°28'0 0.0
2017-Oct-23 01:29N 45°20' E 036°28'0 0.0
2017-Oct-23 01:00N 45°20' E 036°28'0 0.0
2017-Oct-23 00:30N 45°20' E 036°28'0 0.0
2017-Oct-22 23:21N 45°20' E 036°28'0 0.0
2017-Oct-22 22:57N 45°20' E 036°28'0 0.0
2017-Oct-22 22:25N 45°20' E 036°28'0 0.0
2017-Oct-22 21:36N 45°20' E 036°28'0 0.0
2017-Oct-22 21:30N 45°20' E 036°28'0 0.0
2017-Oct-22 20:58N 45°20' E 036°28'0 0.0
2017-Oct-22 20:23N 45°20' E 036°28'0 0.0
2017-Oct-22 19:59N 45°20' E 036°28'0 0.0
2017-Oct-22 18:18N 45°20' E 036°28'0 0.0
2017-Oct-22 17:57N 45°20' E 036°28'0 0.0
2017-Oct-22 17:30N 45°20' E 036°28'0 0.0
2017-Oct-22 16:58N 45°20' E 036°28'0 0.0
2017-Oct-22 16:21N 45°20' E 036°28'0 0.0
2017-Oct-22 16:00N 45°20' E 036°28'0 0.0
2017-Oct-22 15:29N 45°20' E 036°28'0 0.0
2017-Oct-22 14:56N 45°20' E 036°28'0 0.0
2017-Oct-22 14:21N 45°20' E 036°28'0 0.0
2017-Oct-22 13:58N 45°20' E 036°28'0 0.0
2017-Oct-22 13:27N 45°20' E 036°28'0 0.0
2017-Oct-22 12:20N 45°20' E 036°28'0 0.0
2017-Oct-22 11:57N 45°20' E 036°28'0 0.0
2017-Oct-22 11:28N 45°20' E 036°28'0 0.0
2017-Oct-22 11:00N 45°20' E 036°28'0 0.0
2017-Oct-22 10:29N 45°20' E 036°28'0 0.0
2017-Oct-22 09:57N 45°20' E 036°28'0 0.0
2017-Oct-22 09:29N 45°20' E 036°28'0 0.0
2017-Oct-22 08:57N 45°20' E 036°28'0 0.0
2017-Oct-22 08:30N 45°20' E 036°28'0 0.0
2017-Oct-22 07:51N 45°20' E 036°28'0 0.0
2017-Oct-22 07:30N 45°20' E 036°28'0 0.0
2017-Oct-22 04:58N 45°20' E 036°28'0 0.0
2017-Oct-22 04:30N 45°20' E 036°28'0 0.0
2017-Oct-22 03:39N 45°20' E 036°28'0 0.0
2017-Oct-22 03:28N 45°20' E 036°28'0 0.0
2017-Oct-22 03:00N 45°20' E 036°28'0 0.0
2017-Oct-22 02:25N 45°20' E 036°28'0 0.0
2017-Oct-22 01:46N 45°20' E 036°28'0 0.0
2017-Oct-22 01:28N 45°20' E 036°28'0 0.0
2017-Oct-22 00:58N 45°20' E 036°28'0 0.0
2017-Oct-22 00:24N 45°20' E 036°28'0 0.0
2017-Oct-21 23:59N 45°20' E 036°28'0 0.0
2017-Oct-21 21:18N 45°20' E 036°28'0 0.0
2017-Oct-21 20:50N 45°20' E 036°28'0 0.0
2017-Oct-21 20:24N 45°20' E 036°28'0 0.0
2017-Oct-21 19:59N 45°20' E 036°28'0 0.0
2017-Oct-21 19:28N 45°20' E 036°28'0 0.0
2017-Oct-21 18:59N 45°20' E 036°28'0 0.0
2017-Oct-21 18:23N 45°20' E 036°28'0 0.0
2017-Oct-21 18:00N 45°20' E 036°28'0 0.0
2017-Oct-21 17:27N 45°20' E 036°28'0 0.0
2017-Oct-21 16:50N 45°20' E 036°28'0 0.0
2017-Oct-21 16:24N 45°20' E 036°28'0 0.0
2017-Oct-21 16:00N 45°20' E 036°28'0 0.0
2017-Oct-21 15:27N 45°20' E 036°28'0 0.0
2017-Oct-21 14:58N 45°20' E 036°28'0 0.0
2017-Oct-21 14:23N 45°20' E 036°28'0 0.0
2017-Oct-21 13:27N 45°20' E 036°28'0 0.0
2017-Oct-21 12:58N 45°20' E 036°28'0 0.0
2017-Oct-21 12:23N 45°20' E 036°28'0 0.0
2017-Oct-21 12:00N 45°20' E 036°28'0 0.0
2017-Oct-21 11:30N 45°20' E 036°28'0 0.0
2017-Oct-21 10:56N 45°20' E 036°28'0 0.0
2017-Oct-21 10:29N 45°20' E 036°28'0 0.0
2017-Oct-21 09:59N 45°20' E 036°28'0 0.0
2017-Oct-21 09:22N 45°20' E 036°28'0 0.0
2017-Oct-21 07:25N 45°20' E 036°28'0 0.0
2017-Oct-21 07:00N 45°20' E 036°28'0 0.0
2017-Oct-21 06:26N 45°20' E 036°28'0 0.0
2017-Oct-21 05:59N 45°20' E 036°28'0 0.0
2017-Oct-21 05:30N 45°20' E 036°28'0 0.0
2017-Oct-21 04:58N 45°20' E 036°28'0 0.0
2017-Oct-21 04:29N 45°20' E 036°28'0 0.0
2017-Oct-21 03:59N 45°20' E 036°28'0 0.0
2017-Oct-21 02:42N 45°20' E 036°28'0 0.0
2017-Oct-21 02:28N 45°20' E 036°28'0 0.0
2017-Oct-21 01:54N 45°20' E 036°28'0 0.0
2017-Oct-21 01:28N 45°20' E 036°28'0 0.0
2017-Oct-21 00:56N 45°20' E 036°28'0 0.0
2017-Oct-21 00:21N 45°20' E 036°28'0 0.0
2017-Oct-20 23:59N 45°20' E 036°28'0 0.0
2017-Oct-20 23:28N 45°20' E 036°28'0 0.0
2017-Oct-20 22:11N 45°20' E 036°28'0 0.0
2017-Oct-20 21:28N 45°20' E 036°28'0 0.0
2017-Oct-20 20:21N 45°20' E 036°28'0 0.0
2017-Oct-20 19:58N 45°20' E 036°28'0 0.0
2017-Oct-20 18:16N 45°20' E 036°28'0 0.0
2017-Oct-20 17:59N 45°20' E 036°28'0 0.0
2017-Oct-20 17:28N 45°20' E 036°28'0 0.0
2017-Oct-20 16:30N 45°20' E 036°28'0 0.0
2017-Oct-20 15:57N 45°20' E 036°28'0 0.0
2017-Oct-20 15:27N 45°20' E 036°28'0 0.0
2017-Oct-20 13:53N 45°20' E 036°28'0 0.0
2017-Oct-20 13:30N 45°20' E 036°28'0 0.0
2017-Oct-20 12:56N 45°20' E 036°28'0 0.0
2017-Oct-20 12:26N 45°20' E 036°28'0 0.0
2017-Oct-20 11:59N 45°20' E 036°28'0 0.0
2017-Oct-20 11:29N 45°20' E 036°28'0 0.0
2017-Oct-20 10:58N 45°20' E 036°28'0 0.0
2017-Oct-20 10:29N 45°20' E 036°28'0 0.0
2017-Oct-20 09:55N 45°20' E 036°28'0 0.0
2017-Oct-20 09:28N 45°20' E 036°28'0 0.0
2017-Oct-20 08:52N 45°20' E 036°28'0 0.0
2017-Oct-20 08:23N 45°20' E 036°28'0 0.0
2017-Oct-20 08:00N 45°20' E 036°28'0 0.0
2017-Oct-20 07:30N 45°20' E 036°28'0 0.0
2017-Oct-20 06:23N 45°20' E 036°28'0 0.0
2017-Oct-20 05:11N 45°20' E 036°28'0 0.0
2017-Oct-20 04:49N 45°20' E 036°28'0 0.0
2017-Oct-20 04:29N 45°20' E 036°28'0 0.0
2017-Oct-20 03:59N 45°20' E 036°28'0 0.0
2017-Oct-20 02:47N 45°20' E 036°28'0 0.0
2017-Oct-20 02:23N 45°20' E 036°28'0 0.0
2017-Oct-20 01:53N 45°20' E 036°28'0 0.0
2017-Oct-20 01:29N 45°20' E 036°28'0 0.0
2017-Oct-20 00:24N 45°20' E 036°28'0 0.0
2017-Oct-19 23:59N 45°20' E 036°28'0 0.0
2017-Oct-19 23:30N 45°20' E 036°28'0 0.0
2017-Oct-19 22:11N 45°20' E 036°28'0 0.0
2017-Oct-19 21:58N 45°20' E 036°28'0 0.0
2017-Oct-19 21:28N 45°20' E 036°28'0 0.0
2017-Oct-19 20:55N 45°20' E 036°28'0 0.0
2017-Oct-19 20:03N 45°20' E 036°28'0 0.0
2017-Oct-19 20:00N 45°20' E 036°28'0 0.0
2017-Oct-19 19:27N 45°20' E 036°28'0 0.0
2017-Oct-19 18:08N 45°20' E 036°28'0 0.0
2017-Oct-19 17:59N 45°20' E 036°28'0 0.0
2017-Oct-19 17:30N 45°20' E 036°28'0 0.0
2017-Oct-19 16:43N 45°20' E 036°28'0 0.0
2017-Oct-19 16:22N 45°20' E 036°28'0 0.0
2017-Oct-19 15:59N 45°20' E 036°28'0 0.0
2017-Oct-19 15:27N 45°20' E 036°28'0 0.0
2017-Oct-19 14:40N 45°20' E 036°28'0 0.0
2017-Oct-19 14:28N 45°20' E 036°28'0 0.0
2017-Oct-19 14:00N 45°20' E 036°28'0 0.0
2017-Oct-19 13:28N 45°20' E 036°28'0 0.0
2017-Oct-19 12:56N 45°20' E 036°28'0 0.0
2017-Oct-19 12:25N 45°20' E 036°28'0 0.0
2017-Oct-19 12:00N 45°20' E 036°28'0 0.0
2017-Oct-19 11:22N 45°20' E 036°28'0 0.0
2017-Oct-19 10:57N 45°20' E 036°28'0 0.0
2017-Oct-19 10:30N 45°20' E 036°28'0 0.0
2017-Oct-19 09:53N 45°20' E 036°28'0 0.0
2017-Oct-19 09:29N 45°20' E 036°28'0 0.0
2017-Oct-19 08:59N 45°20' E 036°28'0 0.0
2017-Oct-19 08:24N 45°20' E 036°28'0 0.0
2017-Oct-19 07:54N 45°20' E 036°28'0 0.0
2017-Oct-19 07:30N 45°20' E 036°28'0 0.0
2017-Oct-19 06:59N 45°20' E 036°28'0 0.0
2017-Oct-19 06:26N 45°20' E 036°28'0 0.0
2017-Oct-19 05:59N 45°20' E 036°28'0 0.0
2017-Oct-19 05:29N 45°20' E 036°28'0 0.0
2017-Oct-19 04:58N 45°20' E 036°28'0 0.0
2017-Oct-19 04:27N 45°20' E 036°28'0 0.0
2017-Oct-19 00:52N 45°20' E 036°28'0 0.0
2017-Oct-19 00:22N 45°20' E 036°28'0 0.0
2017-Oct-18 23:52N 45°20' E 036°28'0 0.0
2017-Oct-18 22:56N 45°20' E 036°28'0 0.0
2017-Oct-18 22:25N 45°20' E 036°28'0 0.0
2017-Oct-18 18:56N 45°20' E 036°28'0 0.0
2017-Oct-18 18:22N 45°20' E 036°28'0 0.0
2017-Oct-18 18:00N 45°20' E 036°28'0 0.0
2017-Oct-18 16:52N 45°20' E 036°28'0 0.0
2017-Oct-18 16:22N 45°20' E 036°28'0 0.0
2017-Oct-18 14:32N 45°20' E 036°28'0 0.0
2017-Oct-18 12:31N 45°20' E 036°28'0 0.0
2017-Oct-18 12:20N 45°20' E 036°28'0 0.0
2017-Oct-18 11:53N 45°20' E 036°28'0 0.0
2017-Oct-18 11:18N 45°20' E 036°28'0 0.0
2017-Oct-18 10:58N 45°20' E 036°28'0 0.0
2017-Oct-18 10:26N 45°20' E 036°28'0 0.0
2017-Oct-18 09:54N 45°20' E 036°28'0 0.0
2017-Oct-18 09:30N 45°20' E 036°28'0 0.0
2017-Oct-18 08:55N 45°20' E 036°28'0 0.0
2017-Oct-18 08:30N 45°20' E 036°28'0 0.0
2017-Oct-18 07:59N 45°20' E 036°28'0 0.0
2017-Oct-18 07:23N 45°20' E 036°28'0 0.0
2017-Oct-18 06:55N 45°20' E 036°28'0 0.0
2017-Oct-18 06:27N 45°20' E 036°28'0 0.0
2017-Oct-18 06:00N 45°20' E 036°28'0 0.0
2017-Oct-18 05:21N 45°20' E 036°28'0 0.0
2017-Oct-18 04:57N 45°20' E 036°28'0 0.0
2017-Oct-18 04:25N 45°20' E 036°28'0 0.0
2017-Oct-18 03:45N 45°20' E 036°28'0 0.0
2017-Oct-18 03:29N 45°20' E 036°28'0 0.0
2017-Oct-18 02:55N 45°20' E 036°28'0 0.0
2017-Oct-18 02:28N 45°20' E 036°28'0 0.0
2017-Oct-18 01:22N 45°20' E 036°28'0 0.0
2017-Oct-18 00:58N 45°20' E 036°28'0 0.0
2017-Oct-18 00:27N 45°20' E 036°28'0 0.0
2017-Oct-17 23:56N 45°20' E 036°28'0 0.0
2017-Oct-17 22:15N 45°20' E 036°28'0 0.0
2017-Oct-17 21:57N 45°20' E 036°28'0 0.0
2017-Oct-17 21:28N 45°20' E 036°28'0 0.0
2017-Oct-17 20:56N 45°20' E 036°28'0 0.0
2017-Oct-17 20:21N 45°20' E 036°28'0 0.0
2017-Oct-17 19:59N 45°20' E 036°28'0 0.0
2017-Oct-17 19:28N 45°20' E 036°28'0 0.0
2017-Oct-17 19:00N 45°20' E 036°28'0 0.0
2017-Oct-17 17:34N 45°20' E 036°28'0 0.1
2017-Oct-17 17:28N 45°20' E 036°28'0 0.0
2017-Oct-17 16:17N 45°20' E 036°28'0 0.0
2017-Oct-17 15:58N 45°20' E 036°28'0 0.0
2017-Oct-17 15:19N 45°20' E 036°28'0 0.0
2017-Oct-17 14:57N 45°20' E 036°28'0 0.0
2017-Oct-17 14:27N 45°20' E 036°28'0 0.0
2017-Oct-17 13:59N 45°20' E 036°28'0 0.0
2017-Oct-17 13:28N 45°20' E 036°28'0 0.0
2017-Oct-17 12:58N 45°20' E 036°28'0 0.0
2017-Oct-17 12:30N 45°20' E 036°28'0 0.0
2017-Oct-17 12:00N 45°20' E 036°28'0 0.0
2017-Oct-17 11:27N 45°20' E 036°28'0 0.0
2017-Oct-17 11:00N 45°20' E 036°28'1 1.5
2017-Oct-17 10:30N 45°20' E 036°30'3 7.0
2017-Oct-17 10:01N 45°20' E 036°35'4 8.1
2017-Oct-17 09:31N 45°22' E 036°40'4 7.9
2017-Oct-17 09:01N 45°25' E 036°43'4 7.4
2017-Oct-17 08:30N 45°27' E 036°47'3 6.0
2017-Oct-17 08:00N 45°28' E 036°51'0 0.0
2017-Oct-17 07:31N 45°29' E 036°51'0 0.0
2017-Oct-17 07:00N 45°29' E 036°51'0 0.0
2017-Oct-17 06:30N 45°29' E 036°51'0 0.0
2017-Oct-17 05:59N 45°29' E 036°51'0 0.8
2017-Oct-17 05:30N 45°28' E 036°50'4 8.7
2017-Oct-17 05:01N 45°26' E 036°45'4 8.8
2017-Oct-17 04:30N 45°23' E 036°41'4 8.7
2017-Oct-17 04:01N 45°20' E 036°36'4 7.9
2017-Oct-17 03:31N 45°19' E 036°30'1 1.1
2017-Oct-17 02:17N 45°20' E 036°28'0 0.0
2017-Oct-17 01:57N 45°20' E 036°28'0 0.0
2017-Oct-17 01:28N 45°20' E 036°28'0 0.0
2017-Oct-17 00:16N 45°20' E 036°28'0 0.0
2017-Oct-16 23:53N 45°20' E 036°28'0 0.0
2017-Oct-16 23:28N 45°20' E 036°28'0 0.0
2017-Oct-16 22:07N 45°20' E 036°28'0 0.0
2017-Oct-16 21:57N 45°20' E 036°28'0 0.0
2017-Oct-16 21:29N 45°20' E 036°28'0 0.0
2017-Oct-16 20:16N 45°20' E 036°28'0 0.0
2017-Oct-16 19:43N 45°20' E 036°28'0 0.0
2017-Oct-16 19:28N 45°20' E 036°28'0 0.0
2017-Oct-16 18:57N 45°20' E 036°28'0 0.0
2017-Oct-16 17:53N 45°20' E 036°28'0 0.0
2017-Oct-16 17:01N 45°20' E 036°28'0 0.1
2017-Oct-16 16:55N 45°20' E 036°28'0 0.0
2017-Oct-16 16:23N 45°20' E 036°28'0 0.0
2017-Oct-16 15:55N 45°20' E 036°28'0 0.0
2017-Oct-16 15:27N 45°20' E 036°28'0 0.0
2017-Oct-16 14:56N 45°20' E 036°28'0 0.0
2017-Oct-16 14:24N 45°20' E 036°28'0 0.0
2017-Oct-16 13:30N 45°20' E 036°28'0 0.0
2017-Oct-16 12:58N 45°20' E 036°28'0 0.0
2017-Oct-16 12:26N 45°20' E 036°28'0 0.0
2017-Oct-16 12:00N 45°20' E 036°28'0 0.0
2017-Oct-16 11:28N 45°20' E 036°28'0 0.0
2017-Oct-16 10:59N 45°20' E 036°28'0 0.0
2017-Oct-16 10:23N 45°20' E 036°28'0 0.0
2017-Oct-16 09:45N 45°20' E 036°28'0 0.0
2017-Oct-16 09:29N 45°20' E 036°28'0 0.0
2017-Oct-16 08:57N 45°20' E 036°28'0 0.0
2017-Oct-16 08:26N 45°20' E 036°28'0 0.0
2017-Oct-16 07:59N 45°20' E 036°28'0 0.0
2017-Oct-16 07:30N 45°20' E 036°28'0 0.0
2017-Oct-16 06:50N 45°20' E 036°28'0 0.0
2017-Oct-16 06:27N 45°20' E 036°28'0 0.0
2017-Oct-16 05:58N 45°20' E 036°29'0 0.1
2017-Oct-16 05:06N 45°20' E 036°29'0 0.0
2017-Oct-16 04:58N 45°20' E 036°29'0 0.0
2017-Oct-16 04:23N 45°20' E 036°29'0 0.0
2017-Oct-16 03:45N 45°20' E 036°29'0 0.0
2017-Oct-16 03:30N 45°20' E 036°29'0 0.0
2017-Oct-16 02:16N 45°20' E 036°29'0 0.0
2017-Oct-16 01:52N 45°20' E 036°29'0 0.0
2017-Oct-16 01:27N 45°20' E 036°29'0 0.0
2017-Oct-16 00:39N 45°20' E 036°29'0 0.0
2017-Oct-16 00:23N 45°20' E 036°29'0 0.0
2017-Oct-15 23:56N 45°20' E 036°29'0 0.0
2017-Oct-15 23:25N 45°20' E 036°29'0 0.0
2017-Oct-15 22:41N 45°20' E 036°29'0 0.0
2017-Oct-15 22:25N 45°20' E 036°29'0 0.0
2017-Oct-15 21:59N 45°20' E 036°29'0 0.0
2017-Oct-15 21:22N 45°20' E 036°29'0 0.0
2017-Oct-15 20:59N 45°20' E 036°29'0 0.0
2017-Oct-15 20:18N 45°20' E 036°29'0 0.0
2017-Oct-15 19:57N 45°20' E 036°29'0 0.0
2017-Oct-15 18:10N 45°20' E 036°29'0 0.0
2017-Oct-15 17:59N 45°20' E 036°29'0 0.0
2017-Oct-15 16:48N 45°20' E 036°29'0 0.0
2017-Oct-15 16:23N 45°20' E 036°29'0 0.0
2017-Oct-15 13:10N 45°20' E 036°29'0 0.0
2017-Oct-15 12:48N 45°20' E 036°29'0 0.0
2017-Oct-15 12:19N 45°20' E 036°29'0 0.0
2017-Oct-15 11:13N 45°20' E 036°29'0 0.1
2017-Oct-15 10:45N 45°20' E 036°29'0 0.5
2017-Oct-15 10:28N 45°20' E 036°29'0 0.0
2017-Oct-15 09:59N 45°20' E 036°29'0 0.0
2017-Oct-15 09:27N 45°20' E 036°29'0 0.0
2017-Oct-15 09:00N 45°20' E 036°29'0 0.0
2017-Oct-15 08:28N 45°20' E 036°29'0 0.3
2017-Oct-15 08:00N 45°20' E 036°29'0 0.1
2017-Oct-15 07:29N 45°20' E 036°29'0 0.6
2017-Oct-15 07:00N 45°20' E 036°29'1 2.7
2017-Oct-15 06:29N 45°18' E 036°30'3 6.7
2017-Oct-15 06:00N 45°17' E 036°26'  

Dump ship's entire track history